Terminal Aerodrome Forecast
Issued by NWS Riverton, WY

Home | Current Version | Previous Version | Text Only | Print | Product List | Glossary On
Versions: 1 2 3 4 5 6 7 8 9 10 11 12 13 14 15
000
FTUS45 KRIW 311124
TAFRIW
TAF
KRIW 311124Z 3112/0112 02005KT P6SM BKN050
     FM311600 01010KT P6SM SCT050
     FM010200 05009KT P6SM FEW060
     FM010600 VRB05KT P6SM SKC=

USA.gov is the U.S. government's official web portal to all federal, state and local government web resources and services.